I2476 LICA-LICR
Flight info
| Callsign | I2476 |
|---|---|
| Flight time | N/A |
| Altitude | 15000 |
| Route | PERO6R PEROS FOSQA FOSQ1E |
| Aircraft | A320/M-S/7123 |
Departure
| Time | N/A |
|---|---|
| Airport | Lamezia Terme Sant'Eufemia International Airport (LICA) |
Arrival
| Time | 2026-04-27 15:56 |
|---|---|
| Airport | Reggio Calabria Airport (LICR) |
| Time | Latitude | Longitude | Altitude | Speed | Heading |
|---|---|---|---|---|---|
| 2026-04-27 15:31 | 38.90404 | 16.25398 | 0 ft | 0 kts | 278° |
| 2026-04-27 15:32 | 38.90417 | 16.25286 | 0 ft | 44 kts | 278° |
| 2026-04-27 15:32 | 38.90500 | 16.24582 | 0 ft | 115 kts | 278° |
| 2026-04-27 15:32 | 38.90645 | 16.23356 | 0 ft | 160 kts | 278° |
| 2026-04-27 15:32 | 38.90809 | 16.21968 | 0 ft | 195 kts | 277° |
| 2026-04-27 15:33 | 38.90997 | 16.20330 | 0 ft | 179 kts | 277° |
| 2026-04-27 15:33 | 38.91180 | 16.18738 | 0 ft | 183 kts | 277° |
| 2026-04-27 15:33 | 38.91361 | 16.17159 | 0 ft | 186 kts | 277° |
| 2026-04-27 15:33 | 38.91549 | 16.15541 | 0 ft | 188 kts | 277° |
| 2026-04-27 15:34 | 38.91675 | 16.13863 | 0 ft | 190 kts | 259° |
| 2026-04-27 15:34 | 38.91087 | 16.12363 | 0 ft | 198 kts | 237° |
| 2026-04-27 15:34 | 38.90214 | 16.10988 | 0 ft | 204 kts | 232° |
| 2026-04-27 15:34 | 38.89235 | 16.09673 | 0 ft | 204 kts | 230° |
| 2026-04-27 15:35 | 38.88198 | 16.08411 | 0 ft | 208 kts | 227° |
| 2026-04-27 15:35 | 38.87107 | 16.07163 | 0 ft | 211 kts | 226° |
| 2026-04-27 15:35 | 38.85995 | 16.05939 | 0 ft | 213 kts | 225° |
| 2026-04-27 15:35 | 38.84875 | 16.04728 | 0 ft | 216 kts | 225° |
| 2026-04-27 15:36 | 38.83719 | 16.03492 | 0 ft | 218 kts | 225° |
| 2026-04-27 15:36 | 38.82563 | 16.02257 | 0 ft | 220 kts | 225° |
| 2026-04-27 15:36 | 38.81338 | 16.00937 | 0 ft | 251 kts | 225° |
| 2026-04-27 15:36 | 38.79959 | 15.99442 | 0 ft | 268 kts | 224° |
| 2026-04-27 15:37 | 38.78505 | 15.97880 | 0 ft | 275 kts | 224° |
| 2026-04-27 15:37 | 38.77029 | 15.96299 | 0 ft | 282 kts | 224° |
| 2026-04-27 15:37 | 38.75516 | 15.94682 | 0 ft | 287 kts | 224° |
| 2026-04-27 15:37 | 38.73982 | 15.93040 | 0 ft | 292 kts | 224° |
| 2026-04-27 15:38 | 38.72421 | 15.91369 | 0 ft | 296 kts | 224° |
| 2026-04-27 15:38 | 38.70999 | 15.89848 | 0 ft | 299 kts | 224° |
| 2026-04-27 15:38 | 38.69392 | 15.88125 | 0 ft | 311 kts | 224° |
| 2026-04-27 15:38 | 38.67722 | 15.86326 | 0 ft | 328 kts | 224° |
| 2026-04-27 15:39 | 38.66127 | 15.84362 | 0 ft | 342 kts | 236° |
| 2026-04-27 15:39 | 38.64877 | 15.81685 | 0 ft | 358 kts | 245° |
| 2026-04-27 15:39 | 38.63810 | 15.78794 | 0 ft | 374 kts | 248° |
| 2026-04-27 15:39 | 38.63135 | 15.76749 | 0 ft | 381 kts | 249° |
| 2026-04-27 15:40 | 38.62171 | 15.73595 | 0 ft | 381 kts | 251° |
| 2026-04-27 15:40 | 38.61266 | 15.70436 | 0 ft | 380 kts | 252° |
| 2026-04-27 15:40 | 38.60395 | 15.67246 | 0 ft | 380 kts | 252° |
| 2026-04-27 15:40 | 38.59547 | 15.64036 | 0 ft | 381 kts | 253° |
| 2026-04-27 15:41 | 38.58732 | 15.60872 | 0 ft | 380 kts | 253° |
| 2026-04-27 15:41 | 38.57686 | 15.56736 | 0 ft | 380 kts | 253° |
| 2026-04-27 15:41 | 38.57156 | 15.54616 | 0 ft | 380 kts | 253° |
| 2026-04-27 15:41 | 38.56355 | 15.51388 | 0 ft | 380 kts | 253° |
| 2026-04-27 15:42 | 38.55562 | 15.48172 | 0 ft | 380 kts | 253° |
| 2026-04-27 15:42 | 38.54770 | 15.44952 | 0 ft | 380 kts | 253° |
| 2026-04-27 15:42 | 38.53956 | 15.41765 | 0 ft | 381 kts | 249° |
| 2026-04-27 15:42 | 38.52470 | 15.39008 | 0 ft | 387 kts | 225° |
| 2026-04-27 15:43 | 38.50121 | 15.37275 | 0 ft | 398 kts | 201° |
| 2026-04-27 15:43 | 38.47358 | 15.36855 | 0 ft | 406 kts | 183° |
| 2026-04-27 15:43 | 38.44542 | 15.37187 | 0 ft | 410 kts | 175° |
| 2026-04-27 15:43 | 38.41790 | 15.37905 | 0 ft | 413 kts | 169° |
| 2026-04-27 15:44 | 38.39129 | 15.38885 | 0 ft | 415 kts | 166° |
| 2026-04-27 15:44 | 38.36493 | 15.40080 | 0 ft | 413 kts | 162° |
| 2026-04-27 15:44 | 38.34018 | 15.41381 | 0 ft | 396 kts | 160° |
| 2026-04-27 15:44 | 38.31674 | 15.42762 | 0 ft | 380 kts | 158° |
| 2026-04-27 15:45 | 38.29501 | 15.44161 | 0 ft | 366 kts | 156° |
| 2026-04-27 15:45 | 38.27283 | 15.45651 | 0 ft | 354 kts | 156° |
| 2026-04-27 15:45 | 38.25226 | 15.47061 | 0 ft | 345 kts | 156° |
| 2026-04-27 15:45 | 38.23142 | 15.48496 | 0 ft | 337 kts | 156° |
| 2026-04-27 15:46 | 38.21148 | 15.49873 | 0 ft | 330 kts | 156° |
| 2026-04-27 15:46 | 38.19152 | 15.51248 | 0 ft | 323 kts | 156° |
| 2026-04-27 15:46 | 38.17209 | 15.52568 | 0 ft | 317 kts | 156° |
| 2026-04-27 15:46 | 38.15297 | 15.53775 | 0 ft | 308 kts | 165° |
| 2026-04-27 15:47 | 38.13298 | 15.54492 | 0 ft | 300 kts | 174° |
| 2026-04-27 15:47 | 38.11378 | 15.54884 | 0 ft | 288 kts | 182° |
| 2026-04-27 15:47 | 38.09453 | 15.54828 | 0 ft | 273 kts | 190° |
| 2026-04-27 15:47 | 38.07572 | 15.54613 | 0 ft | 272 kts | 192° |
| 2026-04-27 15:48 | 38.05689 | 15.54350 | 0 ft | 274 kts | 192° |
| 2026-04-27 15:48 | 38.03818 | 15.54050 | 0 ft | 284 kts | 194° |
| 2026-04-27 15:48 | 38.01917 | 15.53595 | 0 ft | 288 kts | 197° |
| 2026-04-27 15:49 | 37.98069 | 15.52486 | 0 ft | 292 kts | 199° |
| 2026-04-27 15:49 | 37.96158 | 15.51907 | 0 ft | 291 kts | 199° |
| 2026-04-27 15:49 | 37.94319 | 15.51349 | 0 ft | 277 kts | 199° |
| 2026-04-27 15:49 | 37.92505 | 15.50813 | 0 ft | 257 kts | 199° |
| 2026-04-27 15:50 | 37.90875 | 15.50352 | 0 ft | 224 kts | 199° |
| 2026-04-27 15:50 | 37.89468 | 15.50018 | 0 ft | 194 kts | 188° |
| 2026-04-27 15:50 | 37.88489 | 15.50964 | 0 ft | 202 kts | 96° |
| 2026-04-27 15:50 | 37.88918 | 15.52635 | 0 ft | 210 kts | 52° |
| 2026-04-27 15:51 | 37.89819 | 15.53971 | 0 ft | 198 kts | 41° |
| 2026-04-27 15:51 | 37.90624 | 15.55135 | 0 ft | 189 kts | 44° |
| 2026-04-27 15:51 | 37.91447 | 15.56337 | 0 ft | 197 kts | 38° |
| 2026-04-27 15:51 | 37.92422 | 15.57425 | 0 ft | 192 kts | 34° |
| 2026-04-27 15:52 | 37.93326 | 15.58654 | 0 ft | 202 kts | 45° |
| 2026-04-27 15:52 | 37.94131 | 15.60120 | 0 ft | 201 kts | 52° |
| 2026-04-27 15:52 | 37.94932 | 15.61518 | 0 ft | 195 kts | 39° |
| 2026-04-27 15:52 | 37.95957 | 15.62377 | 0 ft | 186 kts | 17° |
| 2026-04-27 15:53 | 37.97033 | 15.62949 | 0 ft | 167 kts | 10° |
| 2026-04-27 15:53 | 37.97987 | 15.63277 | 0 ft | 152 kts | 1° |
| 2026-04-27 15:53 | 37.98903 | 15.63723 | 0 ft | 147 kts | 20° |
| 2026-04-27 15:53 | 37.99723 | 15.64324 | 0 ft | 135 kts | 13° |
| 2026-04-27 15:54 | 38.00604 | 15.64755 | 0 ft | 159 kts | 9° |
| 2026-04-27 15:54 | 38.01590 | 15.65171 | 0 ft | 158 kts | 8° |
| 2026-04-27 15:54 | 38.02502 | 15.65730 | 0 ft | 140 kts | 29° |
| 2026-04-27 15:54 | 38.03226 | 15.66504 | 0 ft | 132 kts | 1° |
| 2026-04-27 15:55 | 38.04165 | 15.66525 | 0 ft | 142 kts | 345° |
| 2026-04-27 15:55 | 38.05075 | 15.66332 | 0 ft | 127 kts | 333° |
| 2026-04-27 15:55 | 38.05776 | 15.66002 | 0 ft | 113 kts | 326° |
| 2026-04-27 15:55 | 38.06388 | 15.65622 | 0 ft | 108 kts | 324° |
| 2026-04-27 15:56 | 38.06875 | 15.65298 | 0 ft | 38 kts | 332° |
| 2026-04-27 15:56 | 38.06968 | 15.65237 | 0 ft | 7 kts | 332° |
| 2026-04-27 15:56 | 38.06992 | 15.65220 | 0 ft | 1 kts | 333° |
| 2026-04-27 15:56 | 38.06994 | 15.65220 | 0 ft | 0 kts | 333° |